Time;durP1;ratioP1;P1;durP2;ratioP2;P2;SDS_P1;SDS_P2;PMS_P1;PMS_P2;Temp;Humidity;BMP_temperature;BMP_pressure;BME280_temperature;BME280_humidity;BME280_pressure;Samples;Min_cycle;Max_cycle;Signal;HPM_P1;HPM_P2
2022/07/16 00:01:56;;;;;;;8.25;5.10;;;28.80;55.00;;;;;;4994949;28;20141;-51
2022/07/16 00:04:22;;;;;;;26.47;5.73;;;28.80;54.80;;;;;;4995110;28;20101;-51
2022/07/16 00:06:48;;;;;;;8.97;5.80;;;28.80;54.60;;;;;;4993747;28;20037;-51
2022/07/16 00:09:13;;;;;;;11.87;6.03;;;28.80;54.60;;;;;;4993314;28;20034;-51
2022/07/16 00:11:39;;;;;;;9.87;5.97;;;28.80;54.60;;;;;;4994231;28;20058;-51
2022/07/16 00:14:05;;;;;;;9.93;6.80;;;28.80;54.60;;;;;;4994490;28;20491;-51
2022/07/16 00:16:30;;;;;;;8.50;5.53;;;28.80;54.60;;;;;;4993542;28;20027;-51
2022/07/16 00:21:41;;;;;;;9.07;6.30;;;;;;;;;;4994986;28;20106;-51
2022/07/16 00:24:07;;;;;;;7.35;6.60;;;;;;;;;;4994443;28;20034;-51
2022/07/16 00:26:33;;;;;;;9.50;7.03;;;;;;;;;;4992973;28;20026;-51
2022/07/16 00:28:59;;;;;;;7.95;6.70;;;;;;;;;;4986311;28;20041;-51
2022/07/16 00:31:25;;;;;;;7.30;6.20;;;;;;;;;;4994549;28;20029;-50
2022/07/16 00:33:51;;;;;;;9.77;6.72;;;;;;;;;;4993275;28;20034;-51
2022/07/16 00:36:17;;;;;;;9.15;6.07;;;;;;;;;;4994687;28;20026;-51
2022/07/16 00:38:43;;;;;;;10.15;5.43;;;;;;;;;;4994157;28;20032;-50
2022/07/16 00:41:18;;;;;;;7.35;5.47;;;;;;;;;;4994219;28;20061;-51
2022/07/16 00:43:58;;;;;;;7.40;5.15;;;28.70;54.60;;;;;;4993880;28;20034;-51
2022/07/16 00:46:24;;;;;;;7.13;4.40;;;28.50;54.20;;;;;;4994094;28;20034;-51
2022/07/16 00:48:50;;;;;;;6.57;4.60;;;28.50;53.90;;;;;;4993996;28;20037;-50
2022/07/16 00:51:16;;;;;;;6.60;4.37;;;28.40;53.90;;;;;;4994197;28;20664;-50
2022/07/16 00:53:44;;;;;;;9.70;4.85;;;28.30;53.80;;;;;;4993864;28;20509;-50
2022/07/16 00:56:14;;;;;;;9.52;6.03;;;28.30;53.90;;;;;;4993689;28;20069;-49
2022/07/16 00:58:42;;;;;;;7.65;4.85;;;28.40;53.80;;;;;;4993449;28;20026;-50
2022/07/16 01:01:09;;;;;;;10.02;5.53;;;28.30;53.60;;;;;;4987259;28;20658;-49
2022/07/16 01:03:38;;;;;;;5.32;4.32;;;;;;;;;;4977076;28;20023;-50
2022/07/16 01:06:05;;;;;;;11.25;5.20;;;;;;;;;;4974511;28;20026;-50
2022/07/16 01:08:31;;;;;;;;;;;;;;;;;;4984683;28;20030;-50
2022/07/16 01:10:57;;;;;;;10.90;5.07;;;;;;;;;;4993549;28;20071;-51
2022/07/16 01:13:23;;;;;;;;;;;;;;;;;;4992987;28;20501;-50
2022/07/16 01:15:49;;;;;;;9.43;5.60;;;;;;;;;;4993849;28;19984;-50
2022/07/16 01:18:15;;;;;;;9.57;5.63;;;;;;;;;;4993767;28;20487;-50
2022/07/16 01:20:41;;;;;;;17.02;6.28;;;;;;;;;;4993458;28;20506;-50
2022/07/16 01:23:08;;;;;;;9.88;4.90;;;;;;;;;;4993365;28;20034;-50
2022/07/16 01:25:34;;;;;;;8.18;5.47;;;;;;;;;;4993216;28;20491;-50
2022/07/16 01:28:00;;;;;;;5.53;4.80;;;;;;;;;;4993684;28;20034;-50
2022/07/16 01:30:26;;;;;;;10.82;5.25;;;;;;;;;;4992703;28;20041;-50
2022/07/16 01:32:52;;;;;;;10.95;5.10;;;;;;;;;;4993426;28;20100;-50
2022/07/16 01:35:18;;;;;;;9.85;5.05;;;;;;;;;;4992604;28;20026;-50
2022/07/16 01:37:44;;;;;;;11.48;6.25;;;;;;;;;;4990988;28;20113;-50
2022/07/16 01:40:10;;;;;;;5.72;5.13;;;;;;;;;;4989517;28;20053;-50
2022/07/16 01:42:37;;;;;;;5.80;5.10;;;;;;;;;;4991791;28;20030;-49
2022/07/16 01:45:03;;;;;;;7.30;5.53;;;28.30;53.60;;;;;;4991757;28;20026;-50
2022/07/16 01:47:29;;;;;;;5.65;5.15;;;;;;;;;;4991340;28;20561;-50
2022/07/16 01:49:55;;;;;;;13.00;6.25;;;;;;;;;;4991053;28;20032;-50
2022/07/16 01:52:22;;;;;;;7.43;6.63;;;;;;;;;;4993015;28;20114;-50
2022/07/16 01:54:48;;;;;;;;;;;;;;;;;;4992435;28;20034;-50
2022/07/16 01:57:14;;;;;;;7.57;6.80;;;;;;;;;;4991529;28;19909;-51
2022/07/16 01:59:40;;;;;;;13.00;6.18;;;;;;;;;;4991227;28;20352;-50
2022/07/16 02:02:06;;;;;;;10.55;6.70;;;;;;;;;;4989600;28;20030;-50
2022/07/16 02:04:33;;;;;;;8.02;6.20;;;;;;;;;;4991405;28;20026;-50
2022/07/16 02:06:59;;;;;;;8.77;5.72;;;;;;;;;;4991968;28;20029;-50
2022/07/16 02:09:25;;;;;;;9.02;6.70;;;;;;;;;;4991449;28;20045;-50
2022/07/16 02:11:51;;;;;;;8.27;6.20;;;;;;;;;;4991610;28;20518;-50
2022/07/16 02:14:17;;;;;;;13.35;7.20;;;;;;;;;;4992341;28;20447;-50
2022/07/16 02:16:43;;;;;;;7.45;6.05;;;;;;;;;;4992431;28;20435;-50
2022/07/16 02:19:09;;;;;;;8.70;5.88;;;;;;;;;;4991711;28;20026;-50
2022/07/16 02:21:35;;;;;;;8.60;6.35;;;;;;;;;;4991566;28;20022;-50
2022/07/16 02:24:01;;;;;;;10.23;6.60;;;;;;;;;;4991677;28;20067;-50
2022/07/16 02:26:27;;;;;;;11.38;6.57;;;;;;;;;;4992070;28;20368;-51
2022/07/16 02:28:53;;;;;;;6.97;6.28;;;;;;;;;;4992207;28;20100;-50
2022/07/16 02:31:20;;;;;;;7.80;6.63;;;;;;;;;;4990904;28;20030;-50
2022/07/16 02:33:46;;;;;;;9.57;5.95;;;;;;;;;;4991988;28;20119;-50
2022/07/16 02:36:12;;;;;;;11.80;6.43;;;;;;;;;;4992124;28;20033;-50
2022/07/16 02:38:38;;;;;;;6.32;5.57;;;;;;;;;;4990715;28;20034;-51
2022/07/16 02:41:04;;;;;;;9.13;6.68;;;;;;;;;;4992088;28;20487;-51
2022/07/16 02:43:31;;;;;;;6.40;5.80;;;;;;;;;;4992062;28;20053;-51
2022/07/16 02:45:57;;;;;;;7.03;5.38;;;;;;;;;;4992081;28;20034;-51
2022/07/16 02:48:23;;;;;;;8.45;5.10;;;;;;;;;;4992037;28;20031;-50
2022/07/16 02:50:49;;;;;;;10.05;5.55;;;;;;;;;;4990820;28;20031;-50
2022/07/16 02:53:15;;;;;;;10.70;5.78;;;;;;;;;;4991667;28;20497;-51
2022/07/16 02:55:41;;;;;;;8.50;5.50;;;;;;;;;;4992201;28;20102;-51
2022/07/16 02:58:07;;;;;;;5.65;4.50;;;;;;;;;;4990884;28;20084;-50
2022/07/16 03:00:33;;;;;;;10.27;5.47;;;;;;;;;;4991421;28;20079;-50
2022/07/16 03:02:59;;;;;;;11.50;5.50;;;;;;;;;;4991871;28;20030;-50
2022/07/16 03:05:26;;;;;;;8.68;4.43;;;;;;;;;;4991743;28;20031;-50
2022/07/16 03:07:52;;;;;;;;;;;;;;;;;;4996396;28;20030;-51
2022/07/16 03:10:18;;;;;;;4.78;4.07;;;;;;;;;;4994252;28;19914;-50
2022/07/16 03:12:44;;;;;;;5.53;4.55;;;;;;;;;;4992853;28;20503;-50
2022/07/16 03:15:12;;;;;;;11.93;5.55;;;;;;;;;;4986995;28;20058;-50
2022/07/16 03:17:38;;;;;;;6.00;4.53;;;;;;;;;;4976529;28;20530;-51
2022/07/16 03:20:05;;;;;;;7.32;4.70;;;;;;;;;;4991764;28;20053;-51
2022/07/16 03:22:31;;;;;;;6.72;5.00;;;;;;;;;;4995884;28;20368;-50
2022/07/16 03:24:57;;;;;;;9.95;5.65;;;;;;;;;;4995515;28;20038;-52
2022/07/16 03:27:23;;;;;;;8.30;6.28;;;;;;;;;;4995808;28;20030;-51
2022/07/16 03:29:49;;;;;;;7.35;6.65;;;;;;;;;;4995372;28;20034;-50
2022/07/16 03:32:15;;;;;;;10.63;6.38;;;;;;;;;;4995426;28;20034;-51
2022/07/16 03:34:42;;;;;;;10.40;6.70;;;;;;;;;;4995543;28;20018;-53
2022/07/16 03:37:08;;;;;;;11.40;6.72;;;;;;;;;;4995555;28;20027;-50
2022/07/16 03:39:35;;;;;;;7.78;6.97;;;;;;;;;;4994808;28;20031;-50
2022/07/16 03:42:01;;;;;;;13.60;7.10;;;;;;;;;;4991097;28;20047;-50
2022/07/16 03:44:27;;;;;;;12.82;7.05;;;;;;;;;;4993887;28;20026;-51
2022/07/16 03:46:53;;;;;;;14.23;6.40;;;;;;;;;;4995478;28;20026;-51
2022/07/16 03:49:19;;;;;;;13.65;6.45;;;;;;;;;;4995157;28;20364;-51
2022/07/16 03:51:45;;;;;;;11.85;5.70;;;;;;;;;;4993738;28;20027;-50
2022/07/16 03:54:11;;;;;;;17.58;6.28;;;;;;;;;;4994799;28;20030;-52
2022/07/16 03:56:37;;;;;;;13.18;6.28;;;;;;;;;;4993781;28;20118;-51
2022/07/16 03:59:03;;;;;;;10.70;6.72;;;;;;;;;;4993298;28;20026;-51
2022/07/16 04:01:30;;;;;;;10.07;6.85;;;;;;;;;;4993461;28;20129;-50
2022/07/16 04:03:56;;;;;;;12.98;6.93;;;;;;;;;;4993273;28;20034;-52
2022/07/16 04:06:22;;;;;;;13.75;7.05;;;;;;;;;;4994564;28;20028;-53
2022/07/16 04:08:48;;;;;;;9.40;6.18;;;;;;;;;;4988652;28;20044;-51
2022/07/16 04:11:14;;;;;;;12.15;6.60;;;;;;;;;;4991398;28;20034;-52
2022/07/16 04:13:41;;;;;;;10.30;7.28;;;;;;;;;;4994807;28;20041;-52
2022/07/16 04:16:07;;;;;;;11.50;6.30;;;;;;;;;;4994943;28;20141;-50
2022/07/16 04:18:34;;;;;;;11.95;6.63;;;;;;;;;;4994303;28;20460;-50
2022/07/16 04:21:00;;;;;;;8.82;6.53;;;;;;;;;;4994873;28;20084;-51
2022/07/16 04:23:26;;;;;;;9.80;6.68;;;;;;;;;;4994890;28;20026;-53
2022/07/16 04:25:52;;;;;;;8.30;6.72;;;;;;;;;;4994682;28;20511;-53
2022/07/16 04:28:18;;;;;;;12.13;7.22;;;;;;;;;;4993460;28;20567;-52
2022/07/16 04:30:45;;;;;;;17.87;7.83;;;;;;;;;;4994358;28;20054;-52
2022/07/16 04:33:11;;;;;;;12.85;6.93;;;;;;;;;;4994579;28;20277;-51
2022/07/16 04:35:37;;;;;;;14.05;7.68;;;;;;;;;;4994706;28;20030;-52
2022/07/16 04:38:03;;;;;;;13.73;7.15;;;;;;;;;;4993325;28;20027;-51
2022/07/16 04:40:29;;;;;;;11.25;8.38;;;;;;;;;;4992990;28;20026;-51
2022/07/16 04:42:56;;;;;;;16.13;7.28;;;;;;;;;;4994522;28;20024;-52
2022/07/16 04:45:22;;;;;;;16.02;7.45;;;;;;;;;;4985899;28;20058;-52
2022/07/16 04:47:48;;;;;;;8.73;7.00;;;;;;;;;;4977368;28;20027;-51
2022/07/16 04:50:14;;;;;;;14.50;6.35;;;;;;;;;;4973397;28;20030;-51
2022/07/16 04:52:40;;;;;;;16.00;6.68;;;;;;;;;;4974817;28;20034;-53
2022/07/16 04:55:06;;;;;;;8.55;6.43;;;;;;;;;;4974863;28;20027;-51
2022/07/16 04:57:32;;;;;;;9.88;5.93;;;;;;;;;;4974692;28;20063;-51
2022/07/16 04:59:59;;;;;;;16.85;6.80;;;;;;;;;;4974401;28;20035;-51
2022/07/16 05:05:09;;;;;;;7.38;4.20;;;;;;;;;;4974681;28;20134;-51
2022/07/16 05:07:36;;;;;;;8.68;4.45;;;;;;;;;;4974485;28;20054;-51
2022/07/16 05:10:02;;;;;;;8.15;4.60;;;;;;;;;;5006908;23;20518;-56
2022/07/16 05:12:28;;;;;;;5.82;4.70;;;;;;;;;;4993635;28;20026;-54
2022/07/16 05:14:54;;;;;;;10.70;5.22;;;;;;;;;;4993768;28;20048;-54
2022/07/16 05:17:20;;;;;;;5.32;4.18;;;;;;;;;;4993830;28;20030;-56
2022/07/16 05:19:46;;;;;;;9.32;4.63;;;;;;;;;;4993577;28;20043;-56
2022/07/16 05:22:12;;;;;;;8.07;3.73;;;;;;;;;;4993630;28;20041;-56
2022/07/16 05:24:38;;;;;;;6.03;4.23;;;;;;;;;;4993593;28;20300;-56
2022/07/16 05:27:04;;;;;;;8.07;4.20;;;;;;;;;;4993527;28;20340;-57
2022/07/16 05:29:31;;;;;;;4.82;4.30;;;;;;;;;;4992552;28;20027;-56
2022/07/16 05:31:57;;;;;;;8.25;4.05;;;;;;;;;;4992117;28;20033;-56
2022/07/16 05:34:23;;;;;;;5.13;3.75;;;;;;;;;;4993407;28;20027;-58
2022/07/16 05:36:49;;;;;;;5.47;3.63;;;;;;;;;;4993599;28;20035;-48
2022/07/16 05:39:15;;;;;;;5.60;3.53;;;;;;;;;;4993438;28;20022;-48
2022/07/16 05:41:41;;;;;;;9.20;4.20;;;;;;;;;;4993305;28;20150;-50
2022/07/16 05:44:07;;;;;;;5.60;3.60;;;;;;;;;;4993442;28;20344;-48
2022/07/16 05:46:33;;;;;;;4.55;3.90;;;;;;;;;;4993368;28;20106;-48
2022/07/16 05:48:59;;;;;;;7.45;4.43;;;;;;;;;;4992979;28;20033;-47
2022/07/16 05:51:25;;;;;;;8.95;3.95;;;;;;;;;;4991825;28;20027;-47
2022/07/16 05:53:51;;;;;;;5.47;3.78;;;;;;;;;;4992693;28;20030;-47
2022/07/16 05:56:17;;;;;;;10.45;3.53;;;;;;;;;;4992829;28;20034;-46
2022/07/16 05:58:43;;;;;;;8.50;4.93;;;;;;;;;;4993007;28;20483;-47
2022/07/16 06:01:10;;;;;;;7.07;4.18;;;;;;;;;;4993092;28;20434;-47
2022/07/16 06:03:39;;;;;;;9.43;3.72;;;;;;;;;;4991781;28;20127;-46
2022/07/16 06:06:05;;;;;;;7.18;3.85;;;;;;;;;;4992852;28;20034;-48
2022/07/16 06:08:32;;;;;;;6.68;3.95;;;;;;;;;;4992860;28;20026;-48
2022/07/16 06:10:59;;;;;;;6.40;4.03;;;;;;;;;;4992887;28;20100;-47
2022/07/16 06:13:25;;;;;;;8.55;4.22;;;;;;;;;;4992747;28;20022;-45
2022/07/16 06:15:51;;;;;;;9.90;4.70;;;;;;;;;;4992801;28;20491;-48
2022/07/16 06:18:17;;;;;;;5.82;4.65;;;;;;;;;;4991504;28;20026;-47
2022/07/16 06:20:43;;;;;;;6.50;3.90;;;;;;;;;;4992244;28;20062;-48
2022/07/16 06:23:09;;;;;;;6.75;4.35;;;;;;;;;;4992859;28;20499;-50
2022/07/16 06:25:37;;;;;;;10.95;5.03;;;;;;;;;;4992568;28;20062;-48
2022/07/16 06:28:03;;;;;;;6.20;4.20;;;;;;;;;;4992703;28;20029;-48
2022/07/16 06:30:29;;;;;;;5.95;4.03;;;;;;;;;;4991143;28;20026;-48
2022/07/16 06:32:55;;;;;;;5.18;3.95;;;;;;;;;;4991381;28;20030;-49
2022/07/16 06:35:21;;;;;;;8.55;4.18;;;;;;;;;;4992635;28;20034;-47
2022/07/16 06:37:47;;;;;;;4.82;3.42;;;;;;;;;;4992657;28;20030;-50
2022/07/16 06:40:13;;;;;;;7.18;5.00;;;;;;;;;;4992516;28;20049;-48
2022/07/16 06:42:40;;;;;;;8.85;4.18;;;;;;;;;;4992499;28;20026;-48
2022/07/16 06:45:06;;;;;;;6.65;4.22;;;;;;;;;;4992648;28;20035;-47
2022/07/16 06:47:32;;;;;;;6.22;3.30;;;;;;;;;;4992449;28;20522;-47
2022/07/16 06:49:58;;;;;;;4.15;3.17;;;;;;;;;;4992188;28;20030;-48
2022/07/16 06:52:24;;;;;;;9.30;4.30;;;;;;;;;;4992376;28;20035;-48
2022/07/16 06:54:50;;;;;;;5.75;3.70;;;;;;;;;;4992478;28;20120;-49
2022/07/16 06:57:16;;;;;;;12.68;4.10;;;;;;;;;;4992525;28;20026;-49
2022/07/16 06:59:42;;;;;;;5.38;3.65;;;;;;;;;;4992293;28;20036;-48
2022/07/16 07:02:08;;;;;;;6.15;3.47;;;;;;;;;;4992283;28;20022;-49
2022/07/16 07:04:34;;;;;;;6.68;3.72;;;;;;;;;;4991954;28;20034;-49
2022/07/16 07:07:01;;;;;;;8.30;5.05;;;;;;;;;;4991860;28;20391;-49
2022/07/16 07:09:27;;;;;;;6.22;4.15;;;;;;;;;;4992073;28;20453;-58
2022/07/16 07:11:53;;;;;;;7.53;3.28;;;;;;;;;;4992226;28;20025;-57
2022/07/16 07:14:19;;;;;;;9.13;3.28;;;;;;;;;;4992275;28;20042;-57
2022/07/16 07:16:45;;;;;;;8.40;4.30;;;;;;;;;;4990849;28;20030;-57
2022/07/16 07:19:11;;;;;;;3.75;3.25;;;;;;;;;;4991575;28;20267;-57
2022/07/16 07:21:37;;;;;;;9.38;3.78;;;;;;;;;;4991397;28;20029;-57
2022/07/16 07:24:03;;;;;;;6.00;3.15;;;;;;;;;;4992048;28;20116;-58
2022/07/16 07:26:29;;;;;;;10.43;3.80;;;;;;;;;;4992074;28;20027;-58
2022/07/16 07:28:55;;;;;;;9.30;2.90;;;;;;;;;;4991944;28;20109;-57
2022/07/16 07:31:21;;;;;;;13.05;3.80;;;;;;;;;;4991884;28;20038;-57
2022/07/16 07:33:47;;;;;;;7.68;3.47;;;;;;;;;;4991920;28;20038;-57
2022/07/16 07:36:13;;;;;;;8.25;3.35;;;;;;;;;;4991851;28;20514;-57
2022/07/16 07:38:39;;;;;;;5.00;3.38;;;;;;;;;;4991736;28;20027;-57
2022/07/16 07:41:05;;;;;;;5.50;2.97;;;;;;;;;;4991988;28;20078;-57
2022/07/16 07:43:31;;;;;;;3.75;2.97;;;;;;;;;;4991877;28;20138;-57
2022/07/16 07:45:57;;;;;;;9.85;4.15;;;;;;;;;;4991820;28;20105;-57
2022/07/16 07:48:24;;;;;;;5.13;2.78;;;;;;;;;;4991726;28;20037;-57
2022/07/16 07:50:50;;;;;;;6.78;2.85;;;;;;;;;;4991700;28;20471;-57
2022/07/16 07:53:16;;;;;;;11.70;3.53;;;;;;;;;;4994398;28;20069;-57
2022/07/16 07:55:42;;;;;;;7.38;2.60;;;;;;;;;;4995384;28;20041;-56
2022/07/16 07:58:08;;;;;;;8.52;3.00;;;;;;;;;;4995320;28;20034;-56
2022/07/16 08:00:34;;;;;;;10.77;3.45;;;;;;;;;;4995005;28;20380;-57
2022/07/16 08:03:00;;;;;;;7.78;2.97;;;;;;;;;;4995138;28;20398;-57
2022/07/16 08:05:26;;;;;;;5.72;3.42;;;;;;;;;;4995048;28;20026;-56
2022/07/16 08:07:53;;;;;;;9.30;3.08;;;;;;;;;;4995081;28;20035;-56
2022/07/16 08:10:19;;;;;;;19.13;3.72;;;;;;;;;;4994876;28;20164;-57
2022/07/16 08:12:45;;;;;;;6.60;3.22;;;;;;;;;;4994931;28;20110;-53
2022/07/16 08:15:11;;;;;;;8.40;3.15;;;;;;;;;;4994884;28;20030;-58
2022/07/16 08:17:38;;;;;;;6.97;3.15;;;;;;;;;;4994945;28;20026;-54
2022/07/16 08:20:04;;;;;;;8.05;3.60;;;;;;;;;;4994578;28;20098;-56
2022/07/16 08:22:30;;;;;;;5.68;2.97;;;;;;;;;;4994763;28;20027;-57
2022/07/16 08:27:41;;;;;;;6.88;2.90;;;;;;;;;;4994699;28;20049;-56
2022/07/16 08:30:07;;;;;;;5.18;2.90;;;;;;;;;;4994490;28;20496;-55
2022/07/16 08:32:33;;;;;;;2.67;2.47;;;;;;;;;;4995001;28;20034;-57
2022/07/16 08:34:59;;;;;;;3.83;3.00;;;;;;;;;;4994672;28;20022;-57
2022/07/16 08:37:36;;;;;;;15.57;3.72;;;;;;;;;;4994893;28;20050;-57
2022/07/16 08:40:05;;;;;;;8.93;2.90;;;;;;;;;;4994268;28;20030;-57
2022/07/16 08:42:35;;;;;;;7.47;3.08;;;;;;;;;;4994433;28;20427;-57
2022/07/16 08:45:01;;;;;;;10.25;3.17;;;;;;;;;;4993077;28;20030;-56
2022/07/16 08:47:27;;;;;;;;;;;;;;;;;;4994815;28;20214;-57
2022/07/16 08:49:53;;;;;;;4.47;2.85;;;;;;;;;;4994063;28;20013;-56
2022/07/16 08:52:20;;;;;;;5.90;3.53;;;;;;;;;;4994217;28;20033;-56
2022/07/16 08:54:48;;;;;;;27.30;4.85;;;;;;;;;;4994016;28;20390;-56
2022/07/16 08:57:15;;;;;;;10.48;4.40;;;;;;;;;;4994236;28;20113;-61
2022/07/16 08:59:41;;;;;;;10.13;2.72;;;;;;;;;;4993949;28;20224;-61
2022/07/16 09:02:07;;;;;;;5.78;2.47;;;;;;;;;;4994432;28;20396;-61
2022/07/16 09:04:33;;;;;;;16.77;2.80;;;;;;;;;;4994108;28;20031;-61
2022/07/16 09:06:59;;;;;;;4.88;2.65;;;;;;;;;;4994014;28;20019;-61
2022/07/16 09:09:25;;;;;;;8.23;2.95;;;;;;;;;;4993720;28;20057;-63
2022/07/16 09:11:51;;;;;;;4.80;2.85;;;;;;;;;;4993522;28;20084;-63
2022/07/16 09:14:18;;;;;;;7.35;3.35;;;;;;;;;;4993390;28;20109;-63
2022/07/16 09:16:45;;;;;;;6.43;3.13;;;;;;;;;;4993408;28;20018;-62
2022/07/16 09:19:25;;;;;;;8.48;2.83;;;;;;;;;;4993476;28;20030;-62
2022/07/16 09:22:03;;;;;;;7.78;2.90;;;;;;;;;;4991915;28;20034;-63
2022/07/16 09:24:33;;;;;;;8.55;3.35;;;;;;;;;;4992697;28;20102;-63
2022/07/16 09:27:03;;;;;;;19.92;10.75;;;;;;;;;;4990544;28;20018;-64
2022/07/16 09:29:29;;;;;;;8.63;5.07;;;;;;;;;;4984046;28;20026;-63
2022/07/16 09:31:55;;;;;;;12.23;4.93;;;;;;;;;;4982194;28;20098;-61
2022/07/16 09:34:21;;;;;;;4.85;3.13;;;;;;;;;;4990456;28;20038;-58
2022/07/16 09:36:58;;;;;;;8.02;3.55;;;;;;;;;;4993492;28;20027;-57
2022/07/16 09:39:24;;;;;;;6.50;3.30;;;;;;;;;;4993281;28;20030;-57
2022/07/16 09:41:50;;;;;;;;;;;;;;;;;;4984792;28;20035;-57
2022/07/16 09:44:21;;;;;;;8.52;3.25;;;;;;;;;;4973981;28;20482;-60
2022/07/16 09:47:19;;;;;;;4.78;3.47;;;;;;;;;;4973885;28;20054;-58
2022/07/16 09:49:51;;;;;;;4.30;3.40;;;;;;;;;;4965887;28;20034;-58
2022/07/16 09:52:28;;;;;;;7.80;2.65;;;;;;;;;;4973908;28;20042;-56
2022/07/16 09:54:57;;;;;;;4.03;2.90;;;;;;;;;;4976408;28;20093;-58
2022/07/16 09:57:25;;;;;;;5.20;2.97;;;;;;;;;;4978715;28;20400;-59
2022/07/16 09:59:52;;;;;;;10.85;3.05;;;;;;;;;;4973412;28;20502;-58
2022/07/16 10:02:18;;;;;;;6.38;3.05;;;;;;;;;;4973490;28;20034;-59
2022/07/16 10:04:44;;;;;;;4.60;2.53;;;;;;;;;;4975836;28;20026;-59
2022/07/16 10:07:10;;;;;;;6.35;2.88;;;;;;;;;;4990075;28;20030;-56
2022/07/16 10:09:38;;;;;;;4.88;2.90;;;;;;;;;;4992483;28;20059;-55
2022/07/16 10:12:11;;;;;;;6.53;2.70;;;;;;;;;;4989588;28;20030;-56
2022/07/16 10:14:40;;;;;;;4.20;3.10;;;;;;;;;;4989523;28;20026;-59
2022/07/16 10:17:13;;;;;;;6.63;3.80;;;;;;;;;;4992890;28;20523;-59
2022/07/16 10:19:39;;;;;;;5.20;3.05;;;;;;;;;;4992528;28;20018;-59
2022/07/16 10:22:11;;;;;;;3.42;2.53;;;;;;;;;;4992672;28;20030;-59
2022/07/16 10:24:45;;;;;;;6.82;2.90;;;;;;;;;;4992646;28;20026;-57
2022/07/16 10:27:32;;;;;;;2.97;2.58;;;;;;;;;;4991358;28;20514;-56
2022/07/16 10:30:25;;;;;;;7.93;3.05;;;;;;;;;;4992514;28;20475;-53
2022/07/16 10:33:00;;;;;;;3.15;2.78;;;;;;;;;;4990819;28;20061;-59
2022/07/16 10:35:32;;;;;;;6.88;2.95;;;;;;;;;;4992501;28;20022;-58
2022/07/16 10:38:09;;;;;;;5.55;2.92;;;;;;;;;;4992711;28;20439;-57
2022/07/16 10:40:37;;;;;;;3.05;2.40;;;;;;;;;;4991978;28;20026;-55
2022/07/16 10:43:09;;;;;;;3.58;2.55;;;;;;;;;;4992739;28;20110;-56
2022/07/16 10:45:51;;;;;;;2.95;2.30;;;;;;;;;;4991918;28;20085;-57
2022/07/16 10:48:18;;;;;;;4.50;3.20;;;;;;;;;;4992108;28;20435;-60
2022/07/16 10:51:04;;;;;;;5.43;2.88;;;;;;;;;;4992216;28;20030;-58
2022/07/16 10:53:51;;;;;;;5.78;3.00;;;;;;;;;;4982403;28;20034;-57
2022/07/16 10:56:32;;;;;;;2.75;2.05;;;;;;;;;;4990497;28;20026;-57
2022/07/16 10:58:58;;;;;;;5.05;2.53;;;;;;;;;;4990895;28;20368;-58
2022/07/16 11:01:24;;;;;;;10.75;2.63;;;;;;;;;;4992464;28;20022;-57
2022/07/16 11:03:51;;;;;;;5.47;2.83;;;;;;;;;;4992288;28;20034;-59
2022/07/16 11:06:21;;;;;;;3.85;2.40;;;;;;;;;;4991475;28;20532;-58
2022/07/16 11:08:52;;;;;;;5.40;2.50;;;;;;;;;;4992061;28;20026;-56
2022/07/16 11:11:18;;;;;;;7.68;2.75;;;;;;;;;;5030686;22;20423;-54
2022/07/16 11:13:44;;;;;;;3.58;2.40;;;;;;;;;;4990795;28;20139;-56
2022/07/16 11:16:10;;;;;;;4.75;2.75;;;;;;;;;;4990562;28;20505;-57
2022/07/16 11:18:37;;;;;;;5.93;2.92;;;;;;;;;;4992101;28;20040;-57
2022/07/16 11:21:03;;;;;;;;;;;;;;;;;;4992445;28;20057;-57
2022/07/16 11:23:29;;;;;;;6.43;2.60;;;;;;;;;;4990597;28;20370;-56
2022/07/16 11:25:56;;;;;;;6.72;2.25;;;;;;;;;;4992063;28;20034;-57
2022/07/16 11:28:22;;;;;;;5.97;2.70;;;;;;;;;;4994642;28;20023;-58
2022/07/16 11:31:01;;;;;;;6.38;2.72;;;;;;;;;;4995365;28;20037;-56
2022/07/16 11:33:31;;;;;;;7.60;2.47;;;;;;;;;;4995609;28;20026;-56
2022/07/16 11:36:05;;;;;;;3.33;2.40;;;;;;;;;;4995551;28;20057;-55
2022/07/16 11:38:32;;;;;;;6.60;2.10;;;;;;;;;;4995486;28;20026;-53
2022/07/16 11:40:58;;;;;;;;;;;;;;;;;;4995826;28;20553;-57
2022/07/16 11:43:30;;;;;;;12.15;3.92;;;;;;;;;;4995430;28;19916;-56
2022/07/16 11:45:56;;;;;;;6.50;3.15;;;;;;;;;;4995354;28;20037;-58
2022/07/16 11:48:22;;;;;;;9.63;3.00;;;;;;;;;;4995554;28;20096;-57
2022/07/16 11:50:49;;;;;;;3.53;2.70;;;;;;;;;;4995006;28;20030;-57
2022/07/16 11:53:26;;;;;;;10.15;2.60;;;;;;;;;;4995226;28;20033;-57
2022/07/16 11:55:53;;;;;;;4.07;2.72;;;;;;;;;;4994906;28;20049;-57
2022/07/16 11:58:20;;;;;;;3.78;2.28;;;;;;;;;;4995261;28;20458;-56
2022/07/16 12:00:46;;;;;;;;;;;;;;;;;;4995177;28;20022;-57
2022/07/16 12:03:12;;;;;;;4.43;3.05;;;;;;;;;;4995199;28;19910;-57
2022/07/16 12:05:38;;;;;;;;;;;;;;;;;;4995451;28;20034;-52
2022/07/16 12:08:04;;;;;;;3.17;2.80;;;;;;;;;;4994761;28;19956;-54
2022/07/16 12:10:30;;;;;;;4.25;3.10;;;;;;;;;;4994400;28;20113;-56
2022/07/16 12:13:04;;;;;;;4.68;2.50;;;;;;;;;;4994715;28;20037;-55
2022/07/16 12:15:30;;;;;;;11.85;2.70;;;;;;;;;;4994456;28;20106;-57
2022/07/16 12:17:56;;;;;;;7.57;2.72;;;;;;;;;;4995008;28;20026;-55
2022/07/16 12:20:22;;;;;;;5.53;3.55;;;;;;;;;;4993695;28;20131;-58
2022/07/16 12:22:55;;;;;;;8.82;2.42;;;;;;;;;;4994171;28;20084;-58
2022/07/16 12:25:22;;;;;;;4.40;3.28;;;;;;;;;;4993885;28;20702;-59
2022/07/16 12:27:49;;;;;;;8.32;2.70;;;;;;;;;;4994308;28;20042;-56
2022/07/16 12:30:16;;;;;;;5.45;2.90;;;;;;;;;;4993242;28;20088;-55
2022/07/16 12:32:49;;;;;;;14.55;2.88;;;;;;;;;;4993362;28;20483;-56
2022/07/16 12:35:33;;;;;;;4.90;2.88;;;;;;;;;;4994193;28;20076;-58
2022/07/16 12:37:59;;;;;;;2.85;2.42;;;;;;;;;;4979497;28;20038;-57
2022/07/16 12:40:25;;;;;;;3.60;2.47;;;;;;;;;;4994274;28;20049;-58
2022/07/16 12:42:51;;;;;;;2.78;2.53;;;;;;;;;;4993949;28;20559;-57
2022/07/16 12:45:17;;;;;;;8.15;2.60;;;;;;;;;;4993757;28;20399;-56
2022/07/16 12:47:44;;;;;;;4.38;2.95;;;;;;;;;;4994323;28;20091;-56
2022/07/16 12:50:10;;;;;;;;;;;;;;;;;;4994532;28;20022;-53
2022/07/16 12:52:36;;;;;;;4.38;2.40;;;;;;;;;;4992905;28;19917;-56
2022/07/16 13:00:32;;;;;;;3.75;3.00;;;;;;;;;;4993998;28;20041;-57
2022/07/16 13:02:58;;;;;;;5.43;2.28;;;;;;;;;;4993870;28;20522;-58
2022/07/16 13:05:25;;;;;;;5.53;2.13;;;;;;;;;;5025249;28;20579;-59
2022/07/16 13:07:51;;;;;;;4.90;2.40;;;;;;;;;;4994074;28;20030;-58
2022/07/16 13:10:17;;;;;;;4.15;2.25;;;;;;;;;;4992728;28;20034;-57
2022/07/16 13:12:43;;;;;;;2.42;2.17;;;;;;;;;;4993508;28;20497;-59
2022/07/16 13:15:09;;;;;;;;;;;;;;;;;;4992834;28;20030;-57
2022/07/16 13:17:35;;;;;;;3.78;2.55;;;;;;;;;;4992454;28;20384;-55
2022/07/16 13:20:02;;;;;;;4.78;2.65;;;;;;;;;;4993408;28;20034;-56
2022/07/16 13:22:28;;;;;;;4.53;2.20;;;;;;;;;;4993514;28;20041;-52
2022/07/16 13:24:54;;;;;;;3.25;2.88;;;;;;;;;;4993707;28;20108;-58
2022/07/16 13:27:20;;;;;;;4.68;2.58;;;;;;;;;;5024831;28;20112;-56
2022/07/16 13:29:46;;;;;;;;;;;;;;;;;;4993256;28;20573;-57
2022/07/16 13:32:13;;;;;;;8.52;2.47;;;;;;;;;;4993441;28;20000;-58
2022/07/16 13:34:39;;;;;;;4.13;2.20;;;;;;;;;;4993243;28;20034;-58
2022/07/16 13:37:05;;;;;;;3.58;2.60;;;;;;;;;;4993489;28;20398;-56
2022/07/16 13:39:31;;;;;;;2.53;2.30;;;;;;;;;;5024126;28;20084;-57
2022/07/16 13:41:58;;;;;;;3.95;2.40;;;;;;;;;;4992989;28;20026;-56
2022/07/16 13:44:24;;;;;;;3.28;2.15;;;;;;;;;;4992795;28;20376;-58
2022/07/16 13:46:50;;;;;;;2.97;2.40;;;;;;;;;;4992806;28;20057;-58
2022/07/16 13:49:16;;;;;;;7.25;2.75;;;;;;;;;;4991591;28;20491;-58
2022/07/16 13:51:42;;;;;;;4.30;2.33;;;;;;;;;;4992914;28;20550;-56
2022/07/16 13:54:08;;;;;;;3.40;2.78;;;;;;;;;;4992828;28;20034;-58
2022/07/16 13:56:34;;;;;;;8.55;2.40;;;;;;;;;;4993075;28;20022;-58
2022/07/16 13:59:00;;;;;;;9.95;2.53;;;;;;;;;;4992900;28;20033;-58
2022/07/16 14:01:26;;;;;;;5.57;2.00;;;;;;;;;;4993085;28;20391;-57
2022/07/16 14:03:53;;;;;;;2.20;1.90;;;;;;;;;;4992834;28;20044;-59
2022/07/16 14:06:19;;;;;;;2.78;2.30;;;;;;;;;;4992730;28;20034;-59
2022/07/16 14:08:45;;;;;;;3.00;2.42;;;;;;;;;;4992688;28;20030;-59
2022/07/16 14:11:12;;;;;;;3.80;2.00;;;;;;;;;;4992672;28;20166;-59
2022/07/16 14:13:38;;;;;;;5.63;3.08;;;;;;;;;;4992787;28;20030;-56
2022/07/16 14:16:05;;;;;;;6.60;2.10;;;;;;;;;;4992789;28;20101;-59
2022/07/16 14:18:31;;;;;;;8.43;2.25;;;;;;;;;;4992518;28;20026;-58
2022/07/16 14:20:57;;;;;;;8.55;2.40;;;;;;;;;;4992383;28;20027;-58
2022/07/16 14:23:23;;;;;;;4.35;2.33;;;;;;;;;;4991846;28;20054;-57
2022/07/16 14:25:49;;;;;;;4.32;2.60;;;;;;;;;;4992254;28;20037;-58
2022/07/16 14:28:15;;;;;;;3.92;2.42;;;;;;;;;;4991971;28;20032;-58
2022/07/16 14:30:41;;;;;;;5.43;2.40;;;;;;;;;;4991524;28;20035;-59
2022/07/16 14:33:07;;;;;;;3.80;1.90;;;;;;;;;;4992405;28;20053;-59
2022/07/16 14:35:34;;;;;;;2.30;1.90;;;;;;;;;;4991166;28;20023;-60
2022/07/16 14:38:00;;;;;;;4.80;2.20;;;;;;;;;;4992488;28;20033;-59
2022/07/16 14:40:26;;;;;;;6.00;2.10;;;;;;;;;;4992353;28;20105;-59
2022/07/16 14:42:52;;;;;;;3.35;2.10;;;;;;;;;;4992375;28;20033;-60
2022/07/16 14:45:19;;;;;;;16.02;3.50;;;;;;;;;;4992315;28;20395;-59
2022/07/16 14:47:46;;;;;;;5.75;2.03;;;;;;;;;;4992387;28;20031;-58
2022/07/16 14:50:14;;;;;;;3.20;2.10;;;;;;;;;;4992142;28;20102;-59
2022/07/16 14:52:40;;;;;;;5.10;1.88;;;;;;;;;;4992308;28;20047;-58